sensor_id;sensor_type;location;lat;lon;timestamp;pressure;altitude;pressure_sealevel;temperature;humidity
19594;BME280;9944;48.240;16.478;2023-02-28T00:03:15;100839.22;;;0.29;59.90
19594;BME280;9944;48.240;16.478;2023-02-28T00:07:19;100834.44;;;0.20;60.10
19594;BME280;9944;48.240;16.478;2023-02-28T00:11:23;100836.94;;;0.18;60.13
19594;BME280;9944;48.240;16.478;2023-02-28T00:15:26;100834.13;;;0.14;60.34
19594;BME280;9944;48.240;16.478;2023-02-28T00:19:29;100840.91;;;0.12;60.26
19594;BME280;9944;48.240;16.478;2023-02-28T00:23:34;100840.84;;;0.10;60.57
19594;BME280;9944;48.240;16.478;2023-02-28T00:27:38;100845.94;;;0.09;60.19
19594;BME280;9944;48.240;16.478;2023-02-28T00:31:42;100843.06;;;0.04;60.44
19594;BME280;9944;48.240;16.478;2023-02-28T00:35:45;100844.63;;;0.00;60.12
19594;BME280;9944;48.240;16.478;2023-02-28T00:39:52;100847.78;;;-0.05;60.47
19594;BME280;9944;48.240;16.478;2023-02-28T00:43:56;100854.41;;;-0.10;60.73
19594;BME280;9944;48.240;16.478;2023-02-28T00:47:59;100858.75;;;-0.09;61.06
19594;BME280;9944;48.240;16.478;2023-02-28T00:52:03;100852.97;;;-0.05;61.05
19594;BME280;9944;48.240;16.478;2023-02-28T00:56:07;100852.59;;;-0.12;60.96
19594;BME280;9944;48.240;16.478;2023-02-28T01:00:12;100857.78;;;-0.12;60.90
19594;BME280;9944;48.240;16.478;2023-02-28T01:04:17;100854.41;;;-0.10;60.79
19594;BME280;9944;48.240;16.478;2023-02-28T01:08:21;100849.22;;;-0.10;60.87
19594;BME280;9944;48.240;16.478;2023-02-28T01:12:26;100852.59;;;-0.12;60.95
19594;BME280;9944;48.240;16.478;2023-02-28T01:16:31;100849.91;;;-0.13;60.97
19594;BME280;9944;48.240;16.478;2023-02-28T01:20:36;100854.22;;;-0.14;60.77
19594;BME280;9944;48.240;16.478;2023-02-28T01:24:39;100849.03;;;-0.14;60.86
19594;BME280;9944;48.240;16.478;2023-02-28T01:28:48;100854.22;;;-0.14;60.74
19594;BME280;9944;48.240;16.478;2023-02-28T01:32:52;100854.22;;;-0.14;61.03
19594;BME280;9944;48.240;16.478;2023-02-28T01:36:56;100870.94;;;-0.08;61.11
19594;BME280;9944;48.240;16.478;2023-02-28T01:41:00;100862.97;;;-0.12;60.75
19594;BME280;9944;48.240;16.478;2023-02-28T01:45:18;100865.47;;;-0.13;60.65
19594;BME280;9944;48.240;16.478;2023-02-28T01:49:23;100857.78;;;-0.12;60.98
19594;BME280;9944;48.240;16.478;2023-02-28T01:53:31;100862.88;;;-0.13;60.67
19594;BME280;9944;48.240;16.478;2023-02-28T01:57:38;100871.91;;;-0.06;60.81
19594;BME280;9944;48.240;16.478;2023-02-28T02:01:45;100877.28;;;-0.03;60.70
19594;BME280;9944;48.240;16.478;2023-02-28T02:05:49;100873.97;;;-0.01;60.67
19594;BME280;9944;48.240;16.478;2023-02-28T02:10:00;100874.69;;;-0.03;60.56
19594;BME280;9944;48.240;16.478;2023-02-28T02:18:47;100870.84;;;0.05;60.48
19594;BME280;9944;48.240;16.478;2023-02-28T02:23:18;100869.03;;;0.04;60.53
19594;BME280;9944;48.240;16.478;2023-02-28T02:27:58;100872.44;;;0.03;60.27
19594;BME280;9944;48.240;16.478;2023-02-28T02:32:18;100864.50;;;-0.00;60.24
19594;BME280;9944;48.240;16.478;2023-02-28T02:36:29;100873.16;;;0.00;60.20
19594;BME280;9944;48.240;16.478;2023-02-28T02:40:38;100876.72;;;0.02;60.54
19594;BME280;9944;48.240;16.478;2023-02-28T02:44:48;100876.09;;;0.06;60.51
19594;BME280;9944;48.240;16.478;2023-02-28T02:48:55;100869.91;;;0.04;60.39
19594;BME280;9944;48.240;16.478;2023-02-28T02:53:02;100870.47;;;-0.01;60.52
19594;BME280;9944;48.240;16.478;2023-02-28T02:57:11;100864.41;;;-0.02;60.43
19594;BME280;9944;48.240;16.478;2023-02-28T03:01:18;100860.97;;;-0.01;60.70
19594;BME280;9944;48.240;16.478;2023-02-28T03:05:34;100858.94;;;-0.06;60.35
19594;BME280;9944;48.240;16.478;2023-02-28T03:09:50;100865.94;;;-0.05;60.74
19594;BME280;9944;48.240;16.478;2023-02-28T03:14:09;100859.03;;;-0.05;60.53
19594;BME280;9944;48.240;16.478;2023-02-28T03:18:24;100869.50;;;-0.03;60.56
19594;BME280;9944;48.240;16.478;2023-02-28T03:22:41;100865.28;;;-0.01;60.87
19594;BME280;9944;48.240;16.478;2023-02-28T03:26:55;100862.69;;;-0.01;61.00
19594;BME280;9944;48.240;16.478;2023-02-28T03:31:08;100870.31;;;-0.04;60.64
19594;BME280;9944;48.240;16.478;2023-02-28T03:35:17;100866.72;;;-0.06;60.55
19594;BME280;9944;48.240;16.478;2023-02-28T03:39:28;100867.38;;;-0.10;60.78
19594;BME280;9944;48.240;16.478;2023-02-28T03:43:49;100866.22;;;-0.16;60.71
19594;BME280;9944;48.240;16.478;2023-02-28T03:47:55;100858.44;;;-0.16;60.75
19594;BME280;9944;48.240;16.478;2023-02-28T03:52:02;100855.84;;;-0.16;61.01
19594;BME280;9944;48.240;16.478;2023-02-28T03:56:11;100858.25;;;-0.19;60.98
19594;BME280;9944;48.240;16.478;2023-02-28T04:00:20;100854.50;;;-0.24;61.19
19594;BME280;9944;48.240;16.478;2023-02-28T04:04:24;100871.59;;;-0.27;61.11
19594;BME280;9944;48.240;16.478;2023-02-28T04:08:27;100866.13;;;-0.32;61.39
19594;BME280;9944;48.240;16.478;2023-02-28T04:12:30;100866.78;;;-0.36;61.20
19594;BME280;9944;48.240;16.478;2023-02-28T04:16:37;100865.94;;;-0.35;61.36
19594;BME280;9944;48.240;16.478;2023-02-28T04:20:40;100870.00;;;-0.40;61.45
19594;BME280;9944;48.240;16.478;2023-02-28T04:24:43;100868.03;;;-0.44;61.56
19594;BME280;9944;48.240;16.478;2023-02-28T04:28:46;100876.78;;;-0.42;61.67
19594;BME280;9944;48.240;16.478;2023-02-28T04:32:51;100881.00;;;-0.44;61.64
19594;BME280;9944;48.240;16.478;2023-02-28T04:36:56;100877.34;;;-0.48;61.86
19594;BME280;9944;48.240;16.478;2023-02-28T04:41:14;100883.94;;;-0.53;62.18
19594;BME280;9944;48.240;16.478;2023-02-28T04:45:17;100878.75;;;-0.53;62.11
19594;BME280;9944;48.240;16.478;2023-02-28T04:49:21;100888.06;;;-0.57;62.30
19594;BME280;9944;48.240;16.478;2023-02-28T04:53:24;100881.81;;;-0.60;62.15
19594;BME280;9944;48.240;16.478;2023-02-28T04:57:27;100873.75;;;-0.65;62.43
19594;BME280;9944;48.240;16.478;2023-02-28T05:01:33;100881.38;;;-0.68;62.94
19594;BME280;9944;48.240;16.478;2023-02-28T05:05:39;100883.69;;;-0.73;62.63
19594;BME280;9944;48.240;16.478;2023-02-28T05:09:42;100883.19;;;-0.80;62.82
19594;BME280;9944;48.240;16.478;2023-02-28T05:13:45;100881.06;;;-0.88;63.03
19594;BME280;9944;48.240;16.478;2023-02-28T05:17:49;100885.06;;;-0.93;63.21
19594;BME280;9944;48.240;16.478;2023-02-28T05:21:54;100878.72;;;-0.98;63.30
19594;BME280;9944;48.240;16.478;2023-02-28T05:25:58;100875.97;;;-1.01;63.27
19594;BME280;9944;48.240;16.478;2023-02-28T05:34:21;100896.19;;;-1.09;63.73
19594;BME280;9944;48.240;16.478;2023-02-28T05:38:25;100896.19;;;-1.09;63.82
19594;BME280;9944;48.240;16.478;2023-02-28T05:42:29;100898.69;;;-1.10;63.96
19594;BME280;9944;48.240;16.478;2023-02-28T05:46:32;100907.88;;;-1.15;63.94
19594;BME280;9944;48.240;16.478;2023-02-28T05:50:35;100916.97;;;-1.22;64.00
19594;BME280;9944;48.240;16.478;2023-02-28T05:54:40;100919.28;;;-1.27;64.32
19594;BME280;9944;48.240;16.478;2023-02-28T05:58:43;100925.66;;;-1.21;64.70
19594;BME280;9944;48.240;16.478;2023-02-28T06:02:46;100925.66;;;-1.21;64.63
19594;BME280;9944;48.240;16.478;2023-02-28T06:06:49;100928.06;;;-1.25;64.91
19594;BME280;9944;48.240;16.478;2023-02-28T06:10:54;100922.09;;;-1.23;65.10
19594;BME280;9944;48.240;16.478;2023-02-28T06:14:57;100926.88;;;-1.30;64.92
19594;BME280;9944;48.240;16.478;2023-02-28T06:19:02;100923.09;;;-1.35;64.96
19594;BME280;9944;48.240;16.478;2023-02-28T06:23:06;100926.31;;;-1.39;65.19
19594;BME280;9944;48.240;16.478;2023-02-28T06:27:11;100921.63;;;-1.45;65.10
19594;BME280;9944;48.240;16.478;2023-02-28T06:31:16;100929.47;;;-1.43;65.36
19594;BME280;9944;48.240;16.478;2023-02-28T06:35:20;100930.50;;;-1.41;65.12
19594;BME280;9944;48.240;16.478;2023-02-28T06:39:23;100932.38;;;-1.38;65.16
19594;BME280;9944;48.240;16.478;2023-02-28T06:43:29;100936.84;;;-1.36;65.55
19594;BME280;9944;48.240;16.478;2023-02-28T06:47:33;100946.81;;;-1.29;65.53
19594;BME280;9944;48.240;16.478;2023-02-28T06:51:37;100952.34;;;-1.22;65.29
19594;BME280;9944;48.240;16.478;2023-02-28T06:55:41;100951.94;;;-1.15;65.38
19594;BME280;9944;48.240;16.478;2023-02-28T06:59:45;100949.09;;;-1.05;65.61
19594;BME280;9944;48.240;16.478;2023-02-28T07:03:49;100951.66;;;-0.92;65.47
19594;BME280;9944;48.240;16.478;2023-02-28T07:07:54;100951.31;;;-0.83;65.39
19594;BME280;9944;48.240;16.478;2023-02-28T07:11:57;100940.63;;;-0.74;65.25
19594;BME280;9944;48.240;16.478;2023-02-28T07:16:04;100951.72;;;-0.62;65.21
19594;BME280;9944;48.240;16.478;2023-02-28T07:20:08;100948.00;;;-0.52;65.04
19594;BME280;9944;48.240;16.478;2023-02-28T07:24:11;100957.63;;;-0.50;64.93
19594;BME280;9944;48.240;16.478;2023-02-28T07:28:17;100955.03;;;-0.50;64.74
19594;BME280;9944;48.240;16.478;2023-02-28T07:32:22;100961.50;;;-0.43;64.87
19594;BME280;9944;48.240;16.478;2023-02-28T07:36:25;100963.94;;;-0.31;64.79
19594;BME280;9944;48.240;16.478;2023-02-28T07:40:28;100969.47;;;-0.25;64.80
19594;BME280;9944;48.240;16.478;2023-02-28T07:44:32;100975.22;;;-0.16;64.79
19594;BME280;9944;48.240;16.478;2023-02-28T07:48:36;100975.44;;;-0.11;64.70
19594;BME280;9944;48.240;16.478;2023-02-28T07:52:40;100984.50;;;-0.04;64.62
19594;BME280;9944;48.240;16.478;2023-02-28T07:56:43;100985.84;;;0.04;64.50
19594;BME280;9944;48.240;16.478;2023-02-28T08:00:47;100983.06;;;0.01;64.33
19594;BME280;9944;48.240;16.478;2023-02-28T08:04:51;100986.22;;;0.10;64.74
19594;BME280;9944;48.240;16.478;2023-02-28T08:08:54;100982.34;;;0.18;64.04
19594;BME280;9944;48.240;16.478;2023-02-28T08:12:58;100984.13;;;0.19;63.70
19594;BME280;9944;48.240;16.478;2023-02-28T08:17:01;100978.94;;;0.19;63.69
19594;BME280;9944;48.240;16.478;2023-02-28T08:21:10;100980.34;;;0.29;63.44
19594;BME280;9944;48.240;16.478;2023-02-28T08:25:13;100986.63;;;0.33;63.65
19594;BME280;9944;48.240;16.478;2023-02-28T08:29:16;100982.94;;;0.44;63.59
19594;BME280;9944;48.240;16.478;2023-02-28T08:33:19;100980.69;;;0.50;63.69
19594;BME280;9944;48.240;16.478;2023-02-28T08:37:24;100974.53;;;0.64;63.86
19594;BME280;9944;48.240;16.478;2023-02-28T08:41:27;100977.81;;;0.77;63.81
19594;BME280;9944;48.240;16.478;2023-02-28T08:45:31;100981.97;;;0.90;63.72
19594;BME280;9944;48.240;16.478;2023-02-28T08:49:34;100987.13;;;1.05;63.43
19594;BME280;9944;48.240;16.478;2023-02-28T08:53:39;100982.91;;;1.23;62.98
19594;BME280;9944;48.240;16.478;2023-02-28T08:57:43;100987.63;;;1.30;62.71
19594;BME280;9944;48.240;16.478;2023-02-28T09:01:46;100981.25;;;1.42;62.77
19594;BME280;9944;48.240;16.478;2023-02-28T09:05:53;100990.84;;;1.59;62.00
19594;BME280;9944;48.240;16.478;2023-02-28T09:09:57;100988.41;;;1.62;61.39
19594;BME280;9944;48.240;16.478;2023-02-28T09:14:01;100987.00;;;1.69;61.90
19594;BME280;9944;48.240;16.478;2023-02-28T09:18:05;100990.16;;;1.80;61.50
19594;BME280;9944;48.240;16.478;2023-02-28T09:22:08;100989.50;;;1.84;60.59
19594;BME280;9944;48.240;16.478;2023-02-28T09:26:19;100993.88;;;1.85;61.11
19594;BME280;9944;48.240;16.478;2023-02-28T09:30:22;100991.28;;;1.85;60.22
19594;BME280;9944;48.240;16.478;2023-02-28T09:34:26;100995.19;;;1.93;59.70
19594;BME280;9944;48.240;16.478;2023-02-28T09:38:29;100995.78;;;1.87;59.88
19594;BME280;9944;48.240;16.478;2023-02-28T09:42:34;101000.06;;;1.87;59.40
19594;BME280;9944;48.240;16.478;2023-02-28T09:46:40;101005.94;;;1.83;59.43
19594;BME280;9944;48.240;16.478;2023-02-28T09:50:47;101008.38;;;1.80;59.69
19594;BME280;9944;48.240;16.478;2023-02-28T09:54:50;101009.22;;;1.79;60.13
19594;BME280;9944;48.240;16.478;2023-02-28T09:58:59;101015.31;;;1.79;59.38
19594;BME280;9944;48.240;16.478;2023-02-28T10:03:27;101012.44;;;1.74;59.73
19594;BME280;9944;48.240;16.478;2023-02-28T10:07:41;101011.56;;;1.74;60.02
19594;BME280;9944;48.240;16.478;2023-02-28T10:11:50;101016.44;;;1.84;60.41
19594;BME280;9944;48.240;16.478;2023-02-28T10:16:01;101005.09;;;2.00;60.25
19594;BME280;9944;48.240;16.478;2023-02-28T10:20:11;101005.44;;;2.08;60.33
19594;BME280;9944;48.240;16.478;2023-02-28T10:24:20;101006.47;;;2.28;60.33
19594;BME280;9944;48.240;16.478;2023-02-28T10:28:24;101002.97;;;2.45;59.88
19594;BME280;9944;48.240;16.478;2023-02-28T10:32:31;100992.00;;;2.52;59.25
19594;BME280;9944;48.240;16.478;2023-02-28T10:36:35;100987.91;;;2.58;59.04
19594;BME280;9944;48.240;16.478;2023-02-28T10:40:38;100978.75;;;2.66;58.39
19594;BME280;9944;48.240;16.478;2023-02-28T10:44:41;100970.16;;;2.68;58.95
19594;BME280;9944;48.240;16.478;2023-02-28T10:49:01;100974.03;;;2.77;58.44
19594;BME280;9944;48.240;16.478;2023-02-28T10:53:17;100963.75;;;2.80;57.70
19594;BME280;9944;48.240;16.478;2023-02-28T10:57:30;100963.75;;;2.80;58.21
19594;BME280;9944;48.240;16.478;2023-02-28T11:01:36;100958.41;;;2.96;57.78
19594;BME280;9944;48.240;16.478;2023-02-28T11:05:42;100950.97;;;3.04;57.83
19594;BME280;9944;48.240;16.478;2023-02-28T11:09:48;100949.59;;;3.12;57.11
19594;BME280;9944;48.240;16.478;2023-02-28T11:13:53;100940.53;;;3.23;57.05
19594;BME280;9944;48.240;16.478;2023-02-28T11:17:59;100939.53;;;3.41;57.05
19594;BME280;9944;48.240;16.478;2023-02-28T11:22:05;100933.09;;;3.52;56.37
19594;BME280;9944;48.240;16.478;2023-02-28T11:26:10;100932.44;;;3.58;56.50
19594;BME280;9944;48.240;16.478;2023-02-28T11:34:37;100909.69;;;3.75;55.41
19594;BME280;9944;48.240;16.478;2023-02-28T11:38:42;100918.31;;;3.74;55.55
19594;BME280;9944;48.240;16.478;2023-02-28T11:42:52;100907.06;;;3.75;55.70
19594;BME280;9944;48.240;16.478;2023-02-28T11:47:04;100908.66;;;3.92;55.51
19594;BME280;9944;48.240;16.478;2023-02-28T11:51:15;100900.63;;;3.88;55.16
19594;BME280;9944;48.240;16.478;2023-02-28T11:55:27;100897.94;;;3.86;54.76
19594;BME280;9944;48.240;16.478;2023-02-28T11:59:39;100899.72;;;3.87;54.33
19594;BME280;9944;48.240;16.478;2023-02-28T12:03:58;100890.88;;;3.83;54.40
19594;BME280;9944;48.240;16.478;2023-02-28T12:08:20;100886.59;;;3.85;54.39
19594;BME280;9944;48.240;16.478;2023-02-28T12:12:37;100878.84;;;3.87;54.16
19594;BME280;9944;48.240;16.478;2023-02-28T12:16:57;100876.69;;;3.98;54.27
19594;BME280;9944;48.240;16.478;2023-02-28T12:21:09;100874.75;;;4.15;54.42
19594;BME280;9944;48.240;16.478;2023-02-28T12:25:41;100870.00;;;4.27;54.08
19594;BME280;9944;48.240;16.478;2023-02-28T12:29:54;100872.75;;;4.30;53.68
19594;BME280;9944;48.240;16.478;2023-02-28T12:34:03;100862.78;;;4.20;53.03
19594;BME280;9944;48.240;16.478;2023-02-28T12:38:11;100866.13;;;4.17;53.46
19594;BME280;9944;48.240;16.478;2023-02-28T12:42:19;100855.88;;;4.22;53.09
19594;BME280;9944;48.240;16.478;2023-02-28T12:46:30;100856.09;;;4.28;52.61
19594;BME280;9944;48.240;16.478;2023-02-28T12:50:35;100847.72;;;4.37;52.96
19594;BME280;9944;48.240;16.478;2023-02-28T12:54:44;100853.25;;;4.45;52.70
19594;BME280;9944;48.240;16.478;2023-02-28T12:58:52;100848.78;;;4.42;52.37
19594;BME280;9944;48.240;16.478;2023-02-28T13:07:53;100850.91;;;4.52;51.99
19594;BME280;9944;48.240;16.478;2023-02-28T13:11:58;100846.06;;;4.62;51.83
19594;BME280;9944;48.240;16.478;2023-02-28T13:16:04;100841.81;;;4.65;51.02
19594;BME280;9944;48.240;16.478;2023-02-28T13:20:17;100841.03;;;4.68;51.41
19594;BME280;9944;48.240;16.478;2023-02-28T13:24:43;100836.81;;;4.71;50.73
19594;BME280;9944;48.240;16.478;2023-02-28T13:29:04;100831.38;;;4.65;49.96
19594;BME280;9944;48.240;16.478;2023-02-28T13:33:27;100831.13;;;4.59;50.02
19594;BME280;9944;48.240;16.478;2023-02-28T13:37:35;100835.41;;;4.57;50.07
19594;BME280;9944;48.240;16.478;2023-02-28T13:41:50;100829.25;;;4.55;50.51
19594;BME280;9944;48.240;16.478;2023-02-28T13:46:10;100831.38;;;4.65;50.59
19594;BME280;9944;48.240;16.478;2023-02-28T13:50:15;100836.81;;;4.71;50.70
19594;BME280;9944;48.240;16.478;2023-02-28T13:54:39;100832.38;;;4.69;50.24
19594;BME280;9944;48.240;16.478;2023-02-28T13:58:53;100832.50;;;4.72;49.91
19594;BME280;9944;48.240;16.478;2023-02-28T14:03:10;100823.03;;;4.75;49.52
19594;BME280;9944;48.240;16.478;2023-02-28T14:07:20;100821.13;;;4.71;50.05
19594;BME280;9944;48.240;16.478;2023-02-28T14:11:28;100826.78;;;4.84;50.21
19594;BME280;9944;48.240;16.478;2023-02-28T14:15:56;100819.91;;;4.86;49.94
19594;BME280;9944;48.240;16.478;2023-02-28T14:19:59;100822.16;;;4.76;49.12
19594;BME280;9944;48.240;16.478;2023-02-28T14:24:25;100819.56;;;4.76;49.46
19594;BME280;9944;48.240;16.478;2023-02-28T14:28:46;100813.22;;;4.70;49.90
19594;BME280;9944;48.240;16.478;2023-02-28T14:33:05;100805.53;;;4.74;49.03
19594;BME280;9944;48.240;16.478;2023-02-28T14:37:16;100804.16;;;4.60;48.96
19594;BME280;9944;48.240;16.478;2023-02-28T14:41:26;100804.22;;;4.62;49.34
19594;BME280;9944;48.240;16.478;2023-02-28T14:45:32;100810.31;;;4.62;49.33
19594;BME280;9944;48.240;16.478;2023-02-28T14:49:42;100804.97;;;4.59;49.34
19594;BME280;9944;48.240;16.478;2023-02-28T14:53:49;100810.22;;;4.59;48.95
19594;BME280;9944;48.240;16.478;2023-02-28T14:57:55;100811.81;;;4.55;49.10
19594;BME280;9944;48.240;16.478;2023-02-28T15:02:20;100804.66;;;4.50;48.77
19594;BME280;9944;48.240;16.478;2023-02-28T15:06:25;100816.00;;;4.50;48.94
19594;BME280;9944;48.240;16.478;2023-02-28T15:10:31;100813.44;;;4.52;48.79
19594;BME280;9944;48.240;16.478;2023-02-28T15:14:36;100812.44;;;4.48;49.15
19594;BME280;9944;48.240;16.478;2023-02-28T15:18:45;100814.97;;;4.47;48.78
19594;BME280;9944;48.240;16.478;2023-02-28T15:22:52;100822.00;;;4.48;48.68
19594;BME280;9944;48.240;16.478;2023-02-28T15:27:00;100813.91;;;4.41;48.95
19594;BME280;9944;48.240;16.478;2023-02-28T15:31:19;100810.47;;;4.43;48.70
19594;BME280;9944;48.240;16.478;2023-02-28T15:35:28;100818.03;;;4.35;48.87
19594;BME280;9944;48.240;16.478;2023-02-28T15:39:48;100815.28;;;4.32;49.33
19594;BME280;9944;48.240;16.478;2023-02-28T15:44:24;100812.72;;;4.33;49.29
19594;BME280;9944;48.240;16.478;2023-02-28T15:48:30;100810.03;;;4.30;49.16
19594;BME280;9944;48.240;16.478;2023-02-28T15:52:38;100810.72;;;4.26;49.33
19594;BME280;9944;48.240;16.478;2023-02-28T15:56:46;100812.63;;;4.30;49.77
19594;BME280;9944;48.240;16.478;2023-02-28T16:01:01;100807.41;;;4.30;49.93
19594;BME280;9944;48.240;16.478;2023-02-28T16:05:22;100811.19;;;4.38;50.17
19594;BME280;9944;48.240;16.478;2023-02-28T16:09:30;100811.44;;;4.45;50.17
19594;BME280;9944;48.240;16.478;2023-02-28T16:13:37;100815.09;;;4.50;50.49
19594;BME280;9944;48.240;16.478;2023-02-28T16:17:40;100816.03;;;4.52;50.29
19594;BME280;9944;48.240;16.478;2023-02-28T16:21:44;100818.66;;;4.52;50.46
19594;BME280;9944;48.240;16.478;2023-02-28T16:25:47;100819.59;;;4.54;50.50
19594;BME280;9944;48.240;16.478;2023-02-28T16:29:52;100819.59;;;4.54;50.66
19594;BME280;9944;48.240;16.478;2023-02-28T16:33:56;100823.06;;;4.53;50.60
19594;BME280;9944;48.240;16.478;2023-02-28T16:38:00;100828.31;;;4.53;50.88
19594;BME280;9944;48.240;16.478;2023-02-28T16:42:03;100829.13;;;4.52;50.59
19594;BME280;9944;48.240;16.478;2023-02-28T16:46:10;100834.16;;;4.47;50.60
19594;BME280;9944;48.240;16.478;2023-02-28T16:50:16;100833.16;;;4.44;50.68
19594;BME280;9944;48.240;16.478;2023-02-28T16:54:20;100840.88;;;4.40;50.78
19594;BME280;9944;48.240;16.478;2023-02-28T16:58:23;100851.09;;;4.57;53.40
19594;BME280;9944;48.240;16.478;2023-02-28T17:02:29;100844.00;;;4.54;52.26
19594;BME280;9944;48.240;16.478;2023-02-28T17:06:32;100849.78;;;4.46;52.14
19594;BME280;9944;48.240;16.478;2023-02-28T17:10:35;100855.41;;;4.32;52.02
19594;BME280;9944;48.240;16.478;2023-02-28T17:14:39;100860.25;;;4.23;52.06
19594;BME280;9944;48.240;16.478;2023-02-28T17:18:43;100861.78;;;4.18;52.04
19594;BME280;9944;48.240;16.478;2023-02-28T17:22:47;100858.94;;;4.12;51.82
19594;BME280;9944;48.240;16.478;2023-02-28T17:26:50;100860.38;;;4.03;51.65
19594;BME280;9944;48.240;16.478;2023-02-28T17:30:53;100868.03;;;3.99;51.90
19594;BME280;9944;48.240;16.478;2023-02-28T17:34:57;100867.91;;;3.96;51.94
19594;BME280;9944;48.240;16.478;2023-02-28T17:39:01;100873.72;;;3.90;52.02
19594;BME280;9944;48.240;16.478;2023-02-28T17:43:04;100874.28;;;3.83;52.19
19594;BME280;9944;48.240;16.478;2023-02-28T17:47:09;100867.75;;;3.72;52.11
19594;BME280;9944;48.240;16.478;2023-02-28T17:51:17;100871.47;;;3.56;52.01
19594;BME280;9944;48.240;16.478;2023-02-28T17:55:20;100873.47;;;3.42;51.92
19594;BME280;9944;48.240;16.478;2023-02-28T17:59:23;100876.53;;;3.32;51.58
19594;BME280;9944;48.240;16.478;2023-02-28T18:03:26;100878.78;;;3.24;51.47
19594;BME280;9944;48.240;16.478;2023-02-28T18:07:31;100881.22;;;3.19;51.40
19594;BME280;9944;48.240;16.478;2023-02-28T18:11:34;100879.16;;;3.12;51.71
19594;BME280;9944;48.240;16.478;2023-02-28T18:15:45;100880.69;;;3.07;51.73
19594;BME280;9944;48.240;16.478;2023-02-28T18:19:49;100878.88;;;3.06;51.77
19594;BME280;9944;48.240;16.478;2023-02-28T18:23:54;100880.53;;;3.04;51.72
19594;BME280;9944;48.240;16.478;2023-02-28T18:27:57;100879.59;;;3.02;51.89
19594;BME280;9944;48.240;16.478;2023-02-28T18:32:00;100870.97;;;3.04;51.92
19594;BME280;9944;48.240;16.478;2023-02-28T18:36:05;100871.94;;;3.06;52.39
19594;BME280;9944;48.240;16.478;2023-02-28T18:40:11;100877.22;;;3.08;52.67
19594;BME280;9944;48.240;16.478;2023-02-28T18:44:15;100867.56;;;3.05;52.60
19594;BME280;9944;48.240;16.478;2023-02-28T18:48:21;100871.75;;;3.02;52.78
19594;BME280;9944;48.240;16.478;2023-02-28T18:52:25;100875.94;;;2.98;53.04
19594;BME280;9944;48.240;16.478;2023-02-28T18:56:29;100875.66;;;2.92;53.15
19594;BME280;9944;48.240;16.478;2023-02-28T19:00:33;100871.88;;;2.85;53.38
19594;BME280;9944;48.240;16.478;2023-02-28T19:04:36;100878.53;;;2.79;53.50
19594;BME280;9944;48.240;16.478;2023-02-28T19:08:42;100872.13;;;2.72;53.78
19594;BME280;9944;48.240;16.478;2023-02-28T19:12:47;100879.69;;;2.66;54.30
19594;BME280;9944;48.240;16.478;2023-02-28T19:16:50;100878.44;;;2.58;53.94
19594;BME280;9944;48.240;16.478;2023-02-28T19:20:53;100882.41;;;2.49;54.08
19594;BME280;9944;48.240;16.478;2023-02-28T19:24:56;100891.72;;;2.44;54.27
19594;BME280;9944;48.240;16.478;2023-02-28T19:29:02;100894.94;;;2.39;54.17
19594;BME280;9944;48.240;16.478;2023-02-28T19:33:06;100891.22;;;2.33;54.23
19594;BME280;9944;48.240;16.478;2023-02-28T19:37:09;100893.66;;;2.30;54.40
19594;BME280;9944;48.240;16.478;2023-02-28T19:41:14;100897.72;;;2.24;54.45
19594;BME280;9944;48.240;16.478;2023-02-28T19:45:19;100894.81;;;2.18;54.73
19594;BME280;9944;48.240;16.478;2023-02-28T19:49:22;100896.31;;;2.12;54.92
19594;BME280;9944;48.240;16.478;2023-02-28T19:53:28;100896.97;;;2.08;55.10
19594;BME280;9944;48.240;16.478;2023-02-28T19:57:31;100903.69;;;2.03;55.10
19594;BME280;9944;48.240;16.478;2023-02-28T20:01:35;100906.94;;;1.99;55.27
19594;BME280;9944;48.240;16.478;2023-02-28T20:05:39;100903.22;;;1.94;55.38
19594;BME280;9944;48.240;16.478;2023-02-28T20:09:42;100903.81;;;1.88;55.82
19594;BME280;9944;48.240;16.478;2023-02-28T20:13:46;100898.41;;;1.84;55.76
19594;BME280;9944;48.240;16.478;2023-02-28T20:17:50;100895.47;;;1.77;55.98
19594;BME280;9944;48.240;16.478;2023-02-28T20:21:54;100905.72;;;1.74;56.09
19594;BME280;9944;48.240;16.478;2023-02-28T20:25:58;100905.44;;;1.68;56.51
19594;BME280;9944;48.240;16.478;2023-02-28T20:30:01;100915.59;;;1.64;56.89
19594;BME280;9944;48.240;16.478;2023-02-28T20:34:07;100909.28;;;1.58;56.91
19594;BME280;9944;48.240;16.478;2023-02-28T20:38:10;100904.66;;;1.53;57.01
19594;BME280;9944;48.240;16.478;2023-02-28T20:42:14;100909.53;;;1.47;56.89
19594;BME280;9944;48.240;16.478;2023-02-28T20:46:17;100900.78;;;1.45;56.86
19594;BME280;9944;48.240;16.478;2023-02-28T20:50:21;100908.34;;;1.40;57.01
19594;BME280;9944;48.240;16.478;2023-02-28T20:54:24;100896.78;;;1.35;56.91
19594;BME280;9944;48.240;16.478;2023-02-28T20:58:31;100897.47;;;1.31;57.01
19594;BME280;9944;48.240;16.478;2023-02-28T21:02:34;100891.06;;;1.24;56.99
19594;BME280;9944;48.240;16.478;2023-02-28T21:06:41;100892.59;;;1.20;57.07
19594;BME280;9944;48.240;16.478;2023-02-28T21:10:47;100895.78;;;1.15;57.24
19594;BME280;9944;48.240;16.478;2023-02-28T21:14:50;100893.84;;;1.11;57.06
19594;BME280;9944;48.240;16.478;2023-02-28T21:18:53;100890.13;;;1.06;57.10
19594;BME280;9944;48.240;16.478;2023-02-28T21:22:57;100890.75;;;1.01;57.22
19594;BME280;9944;48.240;16.478;2023-02-28T21:27:00;100881.81;;;0.96;57.19
19594;BME280;9944;48.240;16.478;2023-02-28T21:31:07;100885.00;;;0.91;57.48
19594;BME280;9944;48.240;16.478;2023-02-28T21:35:10;100883.94;;;0.87;57.47
19594;BME280;9944;48.240;16.478;2023-02-28T21:39:16;100879.53;;;0.86;57.49
19594;BME280;9944;48.240;16.478;2023-02-28T21:43:20;100883.59;;;0.81;57.30
19594;BME280;9944;48.240;16.478;2023-02-28T21:47:23;100881.66;;;0.77;57.37
19594;BME280;9944;48.240;16.478;2023-02-28T21:51:28;100886.50;;;0.71;57.55
19594;BME280;9944;48.240;16.478;2023-02-28T21:55:34;100884.56;;;0.67;57.60
19594;BME280;9944;48.240;16.478;2023-02-28T21:59:37;100877.56;;;0.66;57.70
19594;BME280;9944;48.240;16.478;2023-02-28T22:03:40;100886.03;;;0.61;57.61